createdAt,value
2019-01-23T00:01:12.680Z,23.18
2019-01-23T00:03:40.938Z,27.67
2019-01-23T00:06:09.300Z,27.10
2019-01-23T00:08:37.540Z,25.37
2019-01-23T00:11:05.762Z,29.77
2019-01-23T00:13:34.128Z,25.75
2019-01-23T00:16:02.397Z,25.77
2019-01-23T00:18:30.674Z,26.65
2019-01-23T00:20:58.968Z,24.30
2019-01-23T00:23:46.354Z,14.00
2019-01-23T00:26:14.578Z,16.93
2019-01-23T00:28:42.908Z,12.80
2019-01-23T00:31:11.191Z,23.35
2019-01-23T00:33:39.457Z,12.18
2019-01-23T00:36:07.731Z,25.90
2019-01-23T00:38:35.939Z,11.57
2019-01-23T00:41:04.540Z,23.45
2019-01-23T00:43:32.763Z,37.70
2019-01-23T00:46:00.969Z,31.10
2019-01-23T00:48:29.161Z,26.65
2019-01-23T00:50:57.372Z,33.02
2019-01-23T00:53:25.664Z,35.90
2019-01-23T00:55:53.875Z,31.62
2019-01-23T00:58:22.123Z,40.40
2019-01-23T01:00:50.379Z,39.48
2019-01-23T01:03:18.681Z,42.58
2019-01-23T01:05:46.956Z,34.70
2019-01-23T01:08:15.251Z,35.78
2019-01-23T01:10:43.486Z,41.33
2019-01-23T01:13:11.744Z,36.63
2019-01-23T01:15:40.024Z,42.58
2019-01-23T01:18:27.483Z,20.72
2019-01-23T01:20:55.696Z,39.78
2019-01-23T01:23:43.146Z,42.70
2019-01-23T01:26:11.420Z,29.20
2019-01-23T01:28:58.815Z,45.65
2019-01-23T01:31:27.123Z,39.45
2019-01-23T01:33:55.403Z,44.25
2019-01-23T01:36:23.673Z,42.38
2019-01-23T01:38:52.217Z,30.10
2019-01-23T01:41:20.473Z,38.15
2019-01-23T01:43:48.709Z,38.00
2019-01-23T01:46:16.919Z,40.38
2019-01-23T01:48:45.183Z,35.50
2019-01-23T01:51:32.510Z,32.45
2019-01-23T01:54:00.797Z,20.82
2019-01-23T01:56:28.970Z,35.95
2019-01-23T01:59:02.682Z,41.65
2019-01-23T02:01:27.187Z,39.70
2019-01-23T02:03:55.408Z,32.53
2019-01-23T02:06:23.682Z,32.78
2019-01-23T02:08:51.940Z,35.68
2019-01-23T02:11:20.268Z,47.73
2019-01-23T02:13:48.547Z,48.78
2019-01-23T02:16:16.812Z,34.18
2019-01-23T02:18:45.067Z,48.00
2019-01-23T02:21:13.321Z,37.85
2019-01-23T02:23:41.592Z,46.08
2019-01-23T02:26:09.891Z,33.05
2019-01-23T02:28:38.225Z,39.90
2019-01-23T02:31:06.473Z,47.88
2019-01-23T02:33:40.513Z,39.45
2019-01-23T02:36:08.735Z,39.33
2019-01-23T02:38:37.011Z,44.98
2019-01-23T02:41:05.240Z,47.53
2019-01-23T02:43:33.496Z,34.80
2019-01-23T02:46:01.678Z,46.13
2019-01-23T02:48:29.982Z,35.52
2019-01-23T02:50:58.228Z,39.08
2019-01-23T02:53:26.582Z,41.25
2019-01-23T02:55:54.826Z,36.60
2019-01-23T02:58:23.020Z,36.08
2019-01-23T03:00:51.284Z,38.58
2019-01-23T03:03:19.578Z,36.23
2019-01-23T03:05:47.883Z,41.83
2019-01-23T03:08:16.119Z,29.15
2019-01-23T03:10:44.423Z,35.73
2019-01-23T03:13:12.722Z,38.10
2019-01-23T03:15:41.012Z,30.55
2019-01-23T03:18:09.425Z,35.08
2019-01-23T03:20:37.700Z,37.30
2019-01-23T03:23:25.053Z,39.58
2019-01-23T03:25:53.333Z,36.42
2019-01-23T03:28:21.551Z,32.70
2019-01-23T03:30:49.807Z,31.77
2019-01-23T03:33:18.196Z,36.03
2019-01-23T03:35:46.456Z,32.55
2019-01-23T03:38:33.840Z,42.58
2019-01-23T03:41:01.955Z,31.90
2019-01-23T03:43:30.183Z,31.70
2019-01-23T03:45:58.412Z,31.62
2019-01-23T03:48:26.991Z,34.80
2019-01-23T03:51:14.398Z,33.18
2019-01-23T03:53:42.624Z,29.55
2019-01-23T03:56:10.995Z,25.92
2019-01-23T03:58:39.256Z,37.08
2019-01-23T04:01:07.943Z,32.45
2019-01-23T04:03:36.206Z,38.80
2019-01-23T04:06:04.538Z,35.55
2019-01-23T04:08:32.801Z,32.85
2019-01-23T04:11:01.692Z,32.55
2019-01-23T04:13:29.943Z,29.77
2019-01-23T04:15:58.109Z,31.40
2019-01-23T04:18:26.303Z,30.77
2019-01-23T04:20:54.443Z,36.58
2019-01-23T04:23:23.883Z,45.40
2019-01-23T04:25:52.199Z,47.83
2019-01-23T04:28:20.372Z,39.33
2019-01-23T04:30:48.570Z,41.25
2019-01-23T04:33:16.722Z,37.83
2019-01-23T04:35:44.870Z,33.28
2019-01-23T04:38:13.546Z,41.73
2019-01-23T04:40:48.585Z,24.30
2019-01-23T04:43:18.520Z,34.88
2019-01-23T04:45:46.708Z,34.45
2019-01-23T04:48:14.787Z,34.63
2019-01-23T04:51:00.759Z,36.65
2019-01-23T04:53:41.268Z,39.55
2019-01-23T04:56:09.413Z,35.52
2019-01-23T04:58:37.691Z,40.67
2019-01-23T05:01:05.925Z,26.37
2019-01-23T05:03:34.245Z,33.08
2019-01-23T05:06:02.472Z,32.98
2019-01-23T05:08:30.644Z,29.48
2019-01-23T05:10:58.804Z,24.98
2019-01-23T05:13:26.966Z,27.85
2019-01-23T05:15:55.226Z,30.72
2019-01-23T05:18:23.462Z,37.95
2019-01-23T05:20:51.729Z,41.53
2019-01-23T05:23:20.005Z,33.15
2019-01-23T05:25:53.911Z,35.10
2019-01-23T05:28:22.125Z,33.65
2019-01-23T05:30:50.365Z,36.95
2019-01-23T05:33:18.595Z,33.67
2019-01-23T05:35:46.866Z,32.85
2019-01-23T05:38:34.217Z,32.40
2019-01-23T05:41:02.505Z,30.65
2019-01-23T05:43:30.717Z,42.50
2019-01-23T05:45:58.863Z,31.10
2019-01-23T05:48:27.073Z,31.95
2019-01-23T05:50:55.369Z,32.78
2019-01-23T05:53:23.635Z,32.63
2019-01-23T05:55:51.865Z,36.45
2019-01-23T05:58:26.039Z,25.40
2019-01-23T06:00:54.328Z,42.15
2019-01-23T06:03:22.620Z,25.57
2019-01-23T06:05:50.890Z,39.38
2019-01-23T06:08:19.170Z,24.37
2019-01-23T06:10:47.396Z,35.48
2019-01-23T06:13:15.567Z,28.35
2019-01-23T06:15:44.010Z,27.87
2019-01-23T06:18:12.285Z,35.08
2019-01-23T06:20:40.547Z,30.12
2019-01-23T06:23:08.728Z,31.80
2019-01-23T06:25:36.892Z,37.88
2019-01-23T06:28:04.985Z,29.82
2019-01-23T06:30:33.286Z,38.08
2019-01-23T06:33:01.512Z,31.17
2019-01-23T06:35:29.900Z,36.68
2019-01-23T06:37:58.180Z,28.90
2019-01-23T06:40:26.380Z,40.25
2019-01-23T06:42:54.588Z,60.65
2019-01-23T06:45:22.933Z,36.35
2019-01-23T06:47:51.139Z,59.70
2019-01-23T06:50:20.993Z,38.05
2019-01-23T06:52:49.376Z,38.17
2019-01-23T06:55:36.733Z,45.95
2019-01-23T06:58:05.151Z,27.82
2019-01-23T07:00:33.327Z,46.83
2019-01-23T07:03:01.482Z,43.52
2019-01-23T07:05:29.779Z,43.60
2019-01-23T07:07:58.001Z,51.37
2019-01-23T07:10:26.562Z,63.30
2019-01-23T07:12:54.870Z,46.05
2019-01-23T07:15:23.179Z,50.20
2019-01-23T07:18:10.500Z,40.00
2019-01-23T07:20:38.739Z,37.38
2019-01-23T07:23:06.894Z,48.90
2019-01-23T07:25:54.235Z,47.78
2019-01-23T07:28:41.572Z,47.40
2019-01-23T07:31:09.900Z,43.02
2019-01-23T07:33:38.180Z,49.58
2019-01-23T07:36:06.350Z,53.92
2019-01-23T07:38:34.452Z,47.27
2019-01-23T07:41:02.705Z,55.25
2019-01-23T07:43:31.002Z,47.10
2019-01-23T07:45:59.195Z,42.55
2019-01-23T07:48:27.420Z,45.58
2019-01-23T07:50:55.629Z,40.43
2019-01-23T07:53:23.852Z,55.52
2019-01-23T07:55:52.090Z,54.50
2019-01-23T07:58:20.353Z,60.23
2019-01-23T08:00:48.693Z,49.73
2019-01-23T08:03:16.986Z,46.15
2019-01-23T08:05:45.166Z,32.25
2019-01-23T08:08:13.493Z,46.68
2019-01-23T08:10:41.773Z,41.35
2019-01-23T08:13:10.057Z,55.28
2019-01-23T08:15:38.221Z,27.62
2019-01-23T08:18:07.082Z,50.52
2019-01-23T08:20:35.341Z,40.92
2019-01-23T08:23:03.540Z,42.38
2019-01-23T08:25:31.838Z,44.90
2019-01-23T08:27:59.980Z,35.08
2019-01-23T08:30:28.117Z,46.53
2019-01-23T08:32:56.558Z,47.88
2019-01-23T08:35:27.516Z,59.42
2019-01-23T08:37:55.727Z,52.58
2019-01-23T08:40:23.970Z,58.23
2019-01-23T08:42:52.305Z,59.77
2019-01-23T08:45:39.660Z,60.17
2019-01-23T08:48:07.897Z,46.18
2019-01-23T08:50:38.800Z,49.18
2019-01-23T08:53:06.994Z,51.83
2019-01-23T08:55:35.200Z,57.45
2019-01-23T08:58:03.335Z,61.73
2019-01-23T09:00:31.655Z,60.60
2019-01-23T09:02:59.875Z,62.38
2019-01-23T09:05:28.107Z,63.20
2019-01-23T09:07:56.451Z,64.32
2019-01-23T09:10:24.746Z,63.28
2019-01-23T09:12:55.873Z,90.72
2019-01-23T09:15:24.113Z,126.50
2019-01-23T09:17:52.812Z,120.92
2019-01-23T09:20:21.013Z,102.85
2019-01-23T09:22:49.179Z,79.75
2019-01-23T09:25:19.152Z,73.45
2019-01-23T09:27:47.310Z,68.10
2019-01-23T09:30:21.654Z,62.40
2019-01-23T09:33:12.105Z,57.48
2019-01-23T09:35:52.322Z,73.05
2019-01-23T09:38:56.591Z,58.30
2019-01-23T09:41:47.104Z,65.30
2019-01-23T09:44:51.382Z,45.00
2019-01-23T09:47:49.264Z,61.35
2019-01-23T09:51:03.648Z,38.35
2019-01-23T09:53:37.171Z,44.90
2019-01-23T09:56:05.737Z,54.00
2019-01-23T09:58:34.033Z,22.02
2019-01-23T10:01:02.303Z,29.18
2019-01-23T10:03:30.526Z,17.32
2019-01-23T10:05:58.734Z,39.63
2019-01-23T10:08:26.973Z,21.35
2019-01-23T10:10:55.230Z,30.08
2019-01-23T10:13:23.483Z,16.62
2019-01-23T10:16:07.905Z,23.42
2019-01-23T10:18:36.240Z,39.20
2019-01-23T10:21:04.530Z,33.18
2019-01-23T10:23:52.132Z,27.48
2019-01-23T10:26:20.311Z,31.25
2019-01-23T10:28:48.628Z,15.70
2019-01-23T10:31:16.930Z,15.98
2019-01-23T10:33:45.912Z,16.15
2019-01-23T10:36:14.028Z,11.40
2019-01-23T10:38:42.360Z,9.00
2019-01-23T10:41:10.532Z,30.00
2019-01-23T10:43:38.766Z,33.78
2019-01-23T10:46:07.068Z,16.90
2019-01-23T10:48:38.091Z,21.12
2019-01-23T10:51:05.112Z,22.37
2019-01-23T10:53:52.487Z,17.50
2019-01-23T10:56:20.727Z,30.55
2019-01-23T10:58:49.018Z,20.30
2019-01-23T11:01:17.237Z,16.90
2019-01-23T11:03:45.487Z,22.02
2019-01-23T11:06:13.649Z,35.15
2019-01-23T11:08:41.950Z,27.60
2019-01-23T11:11:10.201Z,28.30
2019-01-23T11:13:41.119Z,31.80
2019-01-23T11:16:09.402Z,21.45
2019-01-23T11:18:37.919Z,11.83
2019-01-23T11:21:25.248Z,26.20
2019-01-23T11:23:53.509Z,33.92
2019-01-23T11:26:21.751Z,21.17
2019-01-23T11:28:50.048Z,21.42
2019-01-23T11:31:37.361Z,27.45
2019-01-23T11:34:24.743Z,18.42
2019-01-23T11:36:53.006Z,27.10
2019-01-23T11:39:21.114Z,16.60
2019-01-23T11:41:49.350Z,27.22
2019-01-23T11:44:17.545Z,27.70
2019-01-23T11:46:45.834Z,20.32
2019-01-23T11:49:14.304Z,25.35
2019-01-23T11:51:42.521Z,30.65
2019-01-23T11:54:10.879Z,26.90
2019-01-23T11:56:39.188Z,29.25
2019-01-23T11:59:07.477Z,18.73
2019-01-23T12:01:35.811Z,31.05
2019-01-23T12:04:04.087Z,27.25
2019-01-23T12:06:32.337Z,33.02
2019-01-23T12:09:00.727Z,26.65
2019-01-23T12:11:48.153Z,29.82
2019-01-23T12:14:16.394Z,32.33
2019-01-23T12:16:44.598Z,24.37
2019-01-23T12:19:12.917Z,22.13
2019-01-23T12:21:41.213Z,29.77
2019-01-23T12:24:09.483Z,26.75
2019-01-23T12:26:38.249Z,29.05
2019-01-23T12:29:06.644Z,28.17
2019-01-23T12:31:35.385Z,27.15
2019-01-23T12:34:04.779Z,26.67
2019-01-23T12:36:32.973Z,23.98
2019-01-23T12:39:01.170Z,23.85
2019-01-23T12:41:29.338Z,24.12
2019-01-23T12:43:57.851Z,20.70
2019-01-23T12:46:26.096Z,27.22
2019-01-23T12:48:54.222Z,30.88
2019-01-23T12:51:22.406Z,26.12
2019-01-23T12:53:50.777Z,29.45
2019-01-23T12:56:19.165Z,31.42
2019-01-23T12:58:47.434Z,28.30
2019-01-23T13:01:15.809Z,29.72
2019-01-23T13:03:44.025Z,22.65
2019-01-23T13:06:12.312Z,31.48
2019-01-23T13:08:40.563Z,28.38
2019-01-23T13:11:08.818Z,32.20
2019-01-23T13:13:37.158Z,18.42
2019-01-23T13:16:05.550Z,32.73
2019-01-23T13:18:53.229Z,33.88
2019-01-23T13:21:21.535Z,32.38
2019-01-23T13:23:49.783Z,22.67
2019-01-23T13:26:18.039Z,32.15
2019-01-23T13:28:46.291Z,35.25
2019-01-23T13:31:14.461Z,32.50
2019-01-23T13:33:42.666Z,24.40
2019-01-23T13:36:10.969Z,32.67
2019-01-23T13:38:39.279Z,33.85
2019-01-23T13:41:07.672Z,25.72
2019-01-23T13:43:35.860Z,32.28
2019-01-23T13:46:04.112Z,32.42
2019-01-23T13:48:32.431Z,33.33
2019-01-23T13:51:00.621Z,25.43
2019-01-23T13:53:28.999Z,29.65
2019-01-23T13:55:57.262Z,30.35
2019-01-23T13:58:25.790Z,34.03
2019-01-23T14:00:54.020Z,25.48
2019-01-23T14:03:22.266Z,22.20
2019-01-23T14:05:50.444Z,30.23
2019-01-23T14:08:18.712Z,28.67
2019-01-23T14:10:46.978Z,31.10
2019-01-23T14:13:15.296Z,33.98
2019-01-23T14:15:43.635Z,34.83
2019-01-23T14:18:11.836Z,34.40
2019-01-23T14:20:40.122Z,29.75
2019-01-23T14:23:08.482Z,27.98
2019-01-23T14:25:36.734Z,27.55
2019-01-23T14:28:24.095Z,18.35
2019-01-23T14:30:52.340Z,34.80
2019-01-23T14:33:20.723Z,17.30
2019-01-23T14:35:49.102Z,30.65
2019-01-23T14:38:17.304Z,29.70
2019-01-23T14:40:45.599Z,35.98
2019-01-23T14:43:13.971Z,33.88
2019-01-23T14:45:56.334Z,32.05
2019-01-23T14:48:12.417Z,24.97
2019-01-23T14:50:40.663Z,27.98
2019-01-23T14:53:08.840Z,28.87
2019-01-23T14:55:37.239Z,23.32
2019-01-23T14:58:05.516Z,26.68
2019-01-23T15:00:33.708Z,32.25
2019-01-23T15:03:02.022Z,27.55
2019-01-23T15:05:30.549Z,32.08
2019-01-23T15:07:58.874Z,32.08
2019-01-23T15:10:28.764Z,26.62
2019-01-23T15:12:57.123Z,37.00
2019-01-23T15:15:25.483Z,29.05
2019-01-23T15:17:54.037Z,31.27
2019-01-23T15:20:31.629Z,22.80
2019-01-23T15:22:59.912Z,31.60
2019-01-23T15:25:28.763Z,33.45
2019-01-23T15:27:56.992Z,24.57
2019-01-23T15:30:25.829Z,26.35
2019-01-23T15:32:54.117Z,23.32
2019-01-23T15:35:22.616Z,27.93
2019-01-23T15:37:50.957Z,24.65
2019-01-23T15:40:24.633Z,23.55
2019-01-23T15:42:52.918Z,31.93
2019-01-23T15:45:21.369Z,10.68
2019-01-23T15:47:49.829Z,32.30
2019-01-23T15:50:25.749Z,31.50
2019-01-23T15:52:54.030Z,31.87
2019-01-23T15:55:23.511Z,35.80
2019-01-23T15:57:51.826Z,38.67
2019-01-23T16:10:42.314Z,34.90
2019-01-23T16:13:10.512Z,36.05
2019-01-23T16:15:38.725Z,49.98
2019-01-23T16:18:06.886Z,56.45
2019-01-23T16:20:35.202Z,68.95
2019-01-23T16:23:03.300Z,50.38
2019-01-23T16:25:31.435Z,30.62
2019-01-23T16:27:59.800Z,42.45
2019-01-23T16:30:48.380Z,32.17
2019-01-23T16:33:38.375Z,38.30
2019-01-23T16:36:11.712Z,33.30
2019-01-23T16:38:39.756Z,37.28
2019-01-23T16:41:07.989Z,39.08
2019-01-23T16:43:36.145Z,29.32
2019-01-23T16:46:04.310Z,26.45
2019-01-23T16:48:41.439Z,40.80
2019-01-23T16:51:09.686Z,39.23
2019-01-23T16:53:37.797Z,38.53
2019-01-23T16:56:06.160Z,40.55
2019-01-23T16:58:34.339Z,32.73
2019-01-23T17:01:05.063Z,32.98
2019-01-23T17:03:33.551Z,28.42
2019-01-23T17:06:02.374Z,42.98
2019-01-23T17:08:30.459Z,47.17
2019-01-23T17:10:58.780Z,34.90
2019-01-23T17:13:29.019Z,61.92
2019-01-23T17:15:57.258Z,49.20
2019-01-23T17:18:25.623Z,40.63
2019-01-23T17:20:54.018Z,37.88
2019-01-23T17:23:22.117Z,44.00
2019-01-23T17:25:57.951Z,52.55
2019-01-23T17:28:26.406Z,54.23
2019-01-23T17:30:54.872Z,42.35
2019-01-23T17:33:33.516Z,50.45
2019-01-23T17:36:04.733Z,47.60
2019-01-23T17:38:34.175Z,43.80
2019-01-23T17:41:03.105Z,45.60
2019-01-23T17:43:32.375Z,41.83
2019-01-23T17:46:01.031Z,42.93
2019-01-23T17:48:29.925Z,52.38
2019-01-23T17:50:58.348Z,45.98
2019-01-23T17:53:27.640Z,47.50
2019-01-23T17:55:56.414Z,44.05
2019-01-23T17:58:24.991Z,49.95
2019-01-23T18:01:12.700Z,44.25
2019-01-23T18:03:43.985Z,45.85
2019-01-23T18:06:12.652Z,48.55
2019-01-23T18:08:41.223Z,46.70
2019-01-23T18:11:10.329Z,55.20
2019-01-23T18:13:38.636Z,50.92
2019-01-23T18:16:10.376Z,46.48
2019-01-23T18:18:39.021Z,60.55
2019-01-23T18:21:07.735Z,45.70
2019-01-23T18:23:36.827Z,57.95
2019-01-23T18:26:05.389Z,10.18
2019-01-23T18:28:34.152Z,59.90
2019-01-23T18:31:11.746Z,64.60
2019-01-23T18:34:12.060Z,24.40
2019-01-23T18:37:18.333Z,10.53
2019-01-23T18:40:34.454Z,54.80
2019-01-23T18:43:39.788Z,48.13
2019-01-23T18:46:55.456Z,40.30
2019-01-23T18:49:43.368Z,34.90
2019-01-23T18:52:13.988Z,46.80
2019-01-23T18:54:42.524Z,45.67
2019-01-23T18:57:14.469Z,57.03
2019-01-23T18:59:43.767Z,56.58
2019-01-23T19:02:12.277Z,26.62
2019-01-23T19:04:40.851Z,26.07
2019-01-23T19:07:09.456Z,51.90
2019-01-23T19:09:37.676Z,15.58
2019-01-23T19:12:06.899Z,34.67
2019-01-23T19:14:35.601Z,61.28
2019-01-23T19:17:04.393Z,52.58
2019-01-23T19:19:33.210Z,33.08
2019-01-23T19:22:01.843Z,54.33
2019-01-23T19:24:31.538Z,52.20
2019-01-23T19:27:02.007Z,60.75
2019-01-23T19:29:30.563Z,59.85
2019-01-23T19:31:59.309Z,54.20
2019-01-23T19:34:29.416Z,29.82
2019-01-23T19:36:58.444Z,49.60
2019-01-23T19:39:27.771Z,52.23
2019-01-23T19:41:56.429Z,60.38
2019-01-23T19:44:25.011Z,60.70
2019-01-23T19:46:54.039Z,67.87
2019-01-23T19:49:24.266Z,63.20
2019-01-23T19:51:53.158Z,67.03
2019-01-23T19:54:22.054Z,69.72
2019-01-23T19:56:50.679Z,56.08
2019-01-23T19:59:19.930Z,32.35
2019-01-23T20:01:48.276Z,49.80
2019-01-23T20:04:16.637Z,63.75
2019-01-23T20:07:07.463Z,62.62
2019-01-23T20:09:36.378Z,34.30
2019-01-23T20:12:05.257Z,38.65
2019-01-23T20:14:33.927Z,46.28
2019-01-23T20:19:36.695Z,58.38
2019-01-23T20:22:05.284Z,48.35
2019-01-23T20:24:33.841Z,53.75
2019-01-23T20:27:06.101Z,51.70
2019-01-23T20:29:34.591Z,47.58
2019-01-23T20:32:02.902Z,63.23
2019-01-23T20:34:31.098Z,52.00
2019-01-23T20:36:59.693Z,38.33
2019-01-23T20:39:28.057Z,56.13
2019-01-23T20:44:43.568Z,17.05
2019-01-23T20:47:11.980Z,67.95
2019-01-23T20:49:40.708Z,59.80
2019-01-23T20:52:08.943Z,51.40
2019-01-23T20:54:37.030Z,67.80
2019-01-23T20:57:05.070Z,49.33
2019-01-23T20:59:33.277Z,62.38
2019-01-23T21:02:01.844Z,60.40
2019-01-23T21:04:30.826Z,43.68
2019-01-23T21:06:59.283Z,57.65
2019-01-23T21:09:27.452Z,55.50
2019-01-23T21:11:56.308Z,62.35
2019-01-23T21:14:24.560Z,46.48
2019-01-23T21:16:53.806Z,58.10
2019-01-23T21:19:22.278Z,59.75
2019-01-23T21:21:50.341Z,54.93
2019-01-23T21:24:18.475Z,60.12
2019-01-23T21:26:46.603Z,53.75
2019-01-23T21:29:14.743Z,55.98
2019-01-23T21:31:43.342Z,60.05
2019-01-23T21:34:11.614Z,59.35
2019-01-23T21:36:39.637Z,46.42
2019-01-23T21:39:09.662Z,52.30
2019-01-23T21:41:37.677Z,65.97
2019-01-23T21:44:05.898Z,50.88
2019-01-23T21:46:34.066Z,70.28
2019-01-23T21:49:02.140Z,53.98
2019-01-23T21:51:31.553Z,60.80
2019-01-23T21:53:59.716Z,59.83
2019-01-23T21:56:27.698Z,53.83
2019-01-23T21:58:55.839Z,64.07
2019-01-23T22:01:23.884Z,53.50
2019-01-23T22:03:52.006Z,59.45
2019-01-23T22:06:20.103Z,68.67
2019-01-23T22:08:48.278Z,64.50
2019-01-23T22:11:16.342Z,55.88
2019-01-23T22:13:44.427Z,50.85
2019-01-23T22:16:12.454Z,63.33
2019-01-23T22:18:40.638Z,52.98
2019-01-23T22:21:08.733Z,60.03
2019-01-23T22:23:36.776Z,54.10
2019-01-23T22:26:04.854Z,46.75
2019-01-23T22:28:33.097Z,45.95
2019-01-23T22:31:02.345Z,55.40
2019-01-23T22:33:30.415Z,50.38
2019-01-23T22:35:58.466Z,45.60
2019-01-23T22:38:26.619Z,47.20
2019-01-23T22:40:54.705Z,60.90
2019-01-23T22:43:22.802Z,49.33
2019-01-23T22:45:50.931Z,44.63
2019-01-23T22:48:18.980Z,57.27
2019-01-23T22:50:47.028Z,48.17
2019-01-23T22:53:35.694Z,53.08
2019-01-23T22:56:03.764Z,59.98
2019-01-23T22:58:31.854Z,49.48
2019-01-23T23:01:27.186Z,48.40
2019-01-23T23:03:55.220Z,48.68
2019-01-23T23:06:23.294Z,65.32
2019-01-23T23:08:51.382Z,54.65
2019-01-23T23:11:19.362Z,47.48
2019-01-23T23:13:48.250Z,53.87
2019-01-23T23:16:16.258Z,58.60
2019-01-23T23:18:44.269Z,68.62
2019-01-23T23:21:12.362Z,48.00
2019-01-23T23:23:40.455Z,50.73
2019-01-23T23:26:08.592Z,56.30
2019-01-23T23:28:36.671Z,49.83
2019-01-23T23:31:04.778Z,55.23
2019-01-23T23:33:32.783Z,44.45
2019-01-23T23:36:00.911Z,49.13
2019-01-23T23:38:28.946Z,61.20
2019-01-23T23:40:56.991Z,46.40
2019-01-23T23:43:25.043Z,38.60
2019-01-23T23:45:53.011Z,48.42
2019-01-23T23:48:21.103Z,57.10
2019-01-23T23:50:49.120Z,56.28
2019-01-23T23:53:17.154Z,53.48
2019-01-23T23:55:45.182Z,59.98
2019-01-23T23:58:13.240Z,54.15
